createdAt,value
2023-02-17T00:02:35.750Z,51.97
2023-02-17T00:05:41.283Z,45.03
2023-02-17T00:08:45.394Z,54.30
2023-02-17T00:11:50.629Z,50.60
2023-02-17T00:14:54.525Z,45.47
2023-02-17T00:17:58.304Z,50.50
2023-02-17T00:21:01.775Z,44.17
2023-02-17T00:24:05.843Z,45.93
2023-02-17T00:27:12.373Z,46.67
2023-02-17T00:30:17.487Z,46.97
2023-02-17T00:33:21.074Z,48.90
2023-02-17T00:36:26.520Z,46.83
2023-02-17T00:39:30.258Z,43.47
2023-02-17T00:42:35.508Z,41.70
2023-02-17T00:45:39.287Z,43.13
2023-02-17T00:48:43.442Z,50.23
2023-02-17T00:51:48.983Z,50.10
2023-02-17T00:54:52.798Z,52.20
2023-02-17T00:57:57.896Z,47.67
2023-02-17T01:01:02.041Z,45.90
2023-02-17T01:04:06.433Z,44.20
2023-02-17T01:07:10.250Z,43.43
2023-02-17T01:10:14.303Z,42.90
2023-02-17T01:13:21.371Z,44.77
2023-02-17T01:16:28.587Z,44.23
2023-02-17T01:19:35.657Z,44.30
2023-02-17T01:22:40.845Z,48.73
2023-02-17T01:25:46.650Z,48.13
2023-02-17T01:28:54.315Z,48.47
2023-02-17T01:31:58.247Z,46.73
2023-02-17T01:35:03.754Z,48.30
2023-02-17T01:38:11.852Z,45.90
2023-02-17T01:41:18.712Z,46.33
2023-02-17T01:44:25.520Z,43.80
2023-02-17T01:47:29.324Z,45.40
2023-02-17T01:50:36.898Z,48.47
2023-02-17T01:53:47.263Z,46.23
2023-02-17T01:56:52.836Z,46.77
2023-02-17T01:59:58.490Z,47.50
2023-02-17T02:03:03.610Z,45.10
2023-02-17T02:06:11.446Z,50.07
2023-02-17T02:09:21.112Z,48.27
2023-02-17T02:12:28.097Z,45.43
2023-02-17T02:15:39.258Z,48.17
2023-02-17T02:18:55.757Z,47.60
2023-02-17T02:22:19.845Z,49.73
2023-02-17T02:25:40.491Z,46.27
2023-02-17T02:29:01.210Z,44.93
2023-02-17T02:32:44.593Z,48.27
2023-02-17T02:35:58.226Z,52.83
2023-02-17T02:39:06.039Z,45.30
2023-02-17T02:42:13.273Z,46.00
2023-02-17T02:45:19.677Z,42.83
2023-02-17T02:48:23.339Z,49.50
2023-02-17T02:51:39.541Z,50.57
2023-02-17T02:54:54.383Z,53.60
2023-02-17T02:58:06.122Z,45.83
2023-02-17T03:01:17.650Z,41.93
2023-02-17T03:04:31.952Z,42.73
2023-02-17T03:07:42.940Z,47.80
2023-02-17T03:10:48.669Z,45.60
2023-02-17T03:13:52.395Z,49.30
2023-02-17T03:16:56.757Z,46.37
2023-02-17T03:20:05.496Z,43.17
2023-02-17T03:23:11.625Z,47.43
2023-02-17T03:26:15.615Z,45.73
2023-02-17T03:29:19.626Z,47.47
2023-02-17T03:32:23.542Z,45.13
2023-02-17T03:35:27.352Z,42.30
2023-02-17T03:38:32.480Z,47.53
2023-02-17T03:41:35.973Z,49.07
2023-02-17T03:44:39.516Z,50.83
2023-02-17T03:47:43.203Z,48.23
2023-02-17T03:50:46.885Z,46.70
2023-02-17T03:53:52.268Z,45.87
2023-02-17T03:56:56.047Z,48.33
2023-02-17T03:59:59.828Z,48.47
2023-02-17T04:03:03.605Z,47.47
2023-02-17T04:06:08.576Z,51.93
2023-02-17T04:09:13.864Z,44.00
2023-02-17T04:12:17.570Z,46.53
2023-02-17T04:15:21.423Z,44.20
2023-02-17T04:18:25.697Z,42.33
2023-02-17T04:21:29.323Z,42.70
2023-02-17T04:24:34.486Z,39.53
2023-02-17T04:27:38.098Z,45.87
2023-02-17T04:30:44.269Z,43.57
2023-02-17T04:33:47.891Z,42.73
2023-02-17T04:36:51.919Z,41.50
2023-02-17T04:39:57.015Z,41.87
2023-02-17T04:43:00.622Z,48.77
2023-02-17T04:46:04.836Z,41.70
2023-02-17T04:49:08.665Z,49.47
2023-02-17T04:52:12.363Z,45.07
2023-02-17T04:55:17.464Z,42.07
2023-02-17T04:58:22.047Z,47.53
2023-02-17T05:01:25.624Z,48.53
2023-02-17T05:04:29.685Z,58.20
2023-02-17T05:07:33.402Z,52.43
2023-02-17T05:10:38.657Z,57.67
2023-02-17T05:13:42.299Z,46.93
2023-02-17T05:16:46.643Z,49.70
2023-02-17T05:19:50.429Z,46.73
2023-02-17T05:22:54.141Z,42.73
2023-02-17T05:25:59.222Z,48.53
2023-02-17T05:29:02.980Z,49.87
2023-02-17T05:32:06.823Z,46.20
2023-02-17T05:35:10.723Z,51.03
2023-02-17T05:38:14.346Z,54.20
2023-02-17T05:41:20.271Z,51.03
2023-02-17T05:44:24.065Z,57.70
2023-02-17T05:47:27.822Z,63.37
2023-02-17T05:50:31.478Z,62.03
2023-02-17T05:53:39.376Z,64.33
2023-02-17T05:56:44.710Z,67.33
2023-02-17T05:59:48.376Z,64.43
2023-02-17T06:02:52.235Z,54.60
2023-02-17T06:05:56.067Z,47.53
2023-02-17T06:08:59.867Z,44.57
2023-02-17T06:12:05.491Z,46.77
2023-02-17T06:15:09.828Z,47.40
2023-02-17T06:18:13.567Z,46.77
2023-02-17T06:21:17.344Z,44.33
2023-02-17T06:24:20.999Z,44.53
2023-02-17T06:27:26.888Z,52.30
2023-02-17T06:30:31.101Z,57.23
2023-02-17T06:33:34.945Z,50.93
2023-02-17T06:36:38.644Z,50.43
2023-02-17T06:39:42.362Z,61.47
2023-02-17T06:42:47.637Z,48.97
2023-02-17T06:45:51.552Z,60.07
2023-02-17T06:48:55.408Z,62.30
2023-02-17T06:51:59.243Z,58.53
2023-02-17T06:55:03.101Z,54.60
2023-02-17T06:58:08.768Z,60.13
2023-02-17T07:01:19.271Z,61.07
2023-02-17T07:04:23.123Z,63.13
2023-02-17T07:07:26.916Z,59.27
2023-02-17T07:10:30.624Z,58.77
2023-02-17T07:13:36.445Z,61.43
2023-02-17T07:16:40.456Z,53.00
2023-02-17T07:19:44.299Z,55.73
2023-02-17T07:22:48.366Z,59.10
2023-02-17T07:25:52.078Z,50.10
2023-02-17T07:28:57.258Z,60.27
2023-02-17T07:32:01.171Z,48.17
2023-02-17T07:35:05.439Z,56.60
2023-02-17T07:38:09.567Z,58.40
2023-02-17T07:41:16.070Z,63.30
2023-02-17T07:44:21.291Z,61.20
2023-02-17T07:47:25.174Z,59.60
2023-02-17T07:50:29.061Z,57.97
2023-02-17T07:53:33.002Z,63.60
2023-02-17T07:56:36.996Z,61.83
2023-02-17T07:59:42.335Z,59.53
2023-02-17T08:02:46.281Z,60.70
2023-02-17T08:05:51.751Z,64.87
2023-02-17T08:09:14.030Z,60.73
2023-02-17T08:12:36.745Z,63.67
2023-02-17T08:15:43.242Z,64.57
2023-02-17T08:18:47.036Z,56.30
2023-02-17T08:21:51.179Z,55.80
2023-02-17T08:24:54.999Z,55.67
2023-02-17T08:27:58.786Z,54.93
2023-02-17T08:31:04.104Z,63.03
2023-02-17T08:34:09.318Z,71.40
2023-02-17T08:37:13.570Z,63.83
2023-02-17T08:40:18.309Z,61.77
2023-02-17T08:43:22.123Z,75.37
2023-02-17T08:46:28.499Z,66.17
2023-02-17T08:49:32.953Z,64.83
2023-02-17T08:52:37.036Z,78.53
2023-02-17T08:55:48.894Z,82.67
2023-02-17T08:58:53.656Z,65.27
2023-02-17T09:01:59.637Z,74.40
2023-02-17T09:05:03.527Z,75.57
2023-02-17T09:08:07.859Z,76.23
2023-02-17T09:11:12.956Z,69.47
2023-02-17T09:14:16.892Z,63.83
2023-02-17T09:17:22.215Z,64.63
2023-02-17T09:20:26.034Z,70.00
2023-02-17T09:23:29.950Z,50.80
2023-02-17T09:26:35.242Z,72.40
2023-02-17T09:29:40.230Z,57.53
2023-02-17T09:32:45.779Z,72.60
2023-02-17T09:35:49.658Z,59.20
2023-02-17T09:38:54.173Z,38.20
2023-02-17T09:41:58.192Z,21.43
2023-02-17T09:45:05.213Z,10.27
2023-02-17T09:48:13.533Z,13.53
2023-02-17T09:51:24.327Z,15.23
2023-02-17T09:54:34.045Z,15.90
2023-02-17T09:57:41.834Z,15.33
2023-02-17T10:00:49.217Z,9.57
2023-02-17T10:03:58.879Z,11.63
2023-02-17T10:07:08.142Z,11.57
2023-02-17T10:10:16.375Z,11.20
2023-02-17T10:13:23.612Z,12.47
2023-02-17T10:16:34.395Z,11.93
2023-02-17T10:19:49.275Z,15.90
2023-02-17T10:22:57.185Z,14.37
2023-02-17T10:26:12.470Z,10.50
2023-02-17T10:29:29.855Z,11.83
2023-02-17T10:32:41.823Z,14.90
2023-02-17T10:35:52.576Z,12.77
2023-02-17T10:39:05.132Z,7.93
2023-02-17T10:42:16.132Z,7.40
2023-02-17T10:45:30.931Z,15.60
2023-02-17T10:48:39.923Z,11.83
2023-02-17T10:51:45.222Z,7.60
2023-02-17T10:54:55.088Z,9.23
2023-02-17T10:58:05.885Z,16.73
2023-02-17T11:01:09.986Z,12.73
2023-02-17T11:04:14.601Z,11.10
2023-02-17T11:07:23.977Z,8.53
2023-02-17T11:10:32.820Z,8.00
2023-02-17T11:13:39.793Z,11.93
2023-02-17T11:16:45.970Z,11.07
2023-02-17T11:19:58.535Z,11.27
2023-02-17T11:23:08.312Z,10.43
2023-02-17T11:26:18.504Z,14.30
2023-02-17T11:29:24.522Z,5.87
2023-02-17T11:32:33.955Z,8.07
2023-02-17T11:35:49.876Z,8.77
2023-02-17T11:38:55.286Z,13.60
2023-02-17T11:41:59.063Z,9.30
2023-02-17T11:45:17.959Z,5.53
2023-02-17T11:48:43.128Z,8.83
2023-02-17T11:51:59.852Z,8.13
2023-02-17T11:55:20.883Z,6.23
2023-02-17T11:58:43.631Z,6.80
2023-02-17T12:02:15.139Z,6.73
2023-02-17T12:05:27.040Z,5.53
2023-02-17T12:08:39.785Z,10.63
2023-02-17T12:11:53.102Z,7.03
2023-02-17T12:15:10.123Z,9.10
2023-02-17T12:18:31.334Z,4.93
2023-02-17T12:21:46.685Z,6.47
2023-02-17T12:25:11.351Z,7.50
2023-02-17T12:28:40.458Z,7.40
2023-02-17T12:32:02.304Z,6.83
2023-02-17T12:35:17.734Z,5.97
2023-02-17T12:38:27.046Z,10.50
2023-02-17T12:41:36.361Z,4.23
2023-02-17T12:44:45.904Z,7.83
2023-02-17T12:47:55.744Z,9.40
2023-02-17T12:51:06.204Z,6.37
2023-02-17T12:54:19.236Z,8.83
2023-02-17T12:57:26.662Z,7.13
2023-02-17T13:00:37.835Z,5.27
2023-02-17T13:03:41.885Z,9.37
2023-02-17T13:06:52.126Z,8.97
2023-02-17T13:09:57.983Z,4.70
2023-02-17T13:13:04.959Z,7.83
2023-02-17T13:16:12.491Z,6.83
2023-02-17T13:19:17.153Z,7.13
2023-02-17T13:22:24.687Z,6.07
2023-02-17T13:25:31.590Z,6.10
2023-02-17T13:28:38.897Z,5.63
2023-02-17T13:31:51.290Z,7.43
2023-02-17T13:35:05.950Z,8.70
2023-02-17T13:38:12.061Z,7.87
2023-02-17T13:41:15.940Z,7.53
2023-02-17T13:44:29.153Z,9.10
2023-02-17T13:47:38.159Z,6.70
2023-02-17T13:50:45.906Z,11.33
2023-02-17T13:53:52.293Z,8.40
2023-02-17T13:56:56.472Z,7.70
2023-02-17T14:00:11.810Z,7.73
2023-02-17T14:03:22.529Z,7.43
2023-02-17T14:06:29.824Z,10.57
2023-02-17T14:09:35.468Z,9.60
2023-02-17T14:12:39.378Z,11.83
2023-02-17T14:15:53.186Z,8.47
2023-02-17T14:19:06.323Z,9.80
2023-02-17T14:22:25.162Z,8.97
2023-02-17T14:25:31.503Z,12.47
2023-02-17T14:28:35.292Z,12.33
2023-02-17T14:31:40.704Z,9.50
2023-02-17T14:34:46.191Z,6.20
2023-02-17T14:37:50.643Z,12.47
2023-02-17T14:40:56.139Z,10.93
2023-02-17T14:44:00.963Z,9.07
2023-02-17T14:47:05.007Z,7.83
2023-02-17T14:50:11.200Z,7.97
2023-02-17T14:53:20.788Z,9.03
2023-02-17T14:56:29.378Z,5.93
2023-02-17T14:59:33.363Z,12.40
2023-02-17T15:02:39.240Z,9.00
2023-02-17T15:05:44.625Z,9.27
2023-02-17T15:08:49.859Z,8.83
2023-02-17T15:11:53.659Z,10.70
2023-02-17T15:14:57.445Z,10.00
2023-02-17T15:18:01.219Z,13.13
2023-02-17T15:21:19.058Z,11.17
2023-02-17T15:24:30.002Z,11.37
2023-02-17T15:27:35.760Z,11.87
2023-02-17T15:30:39.550Z,14.03
2023-02-17T15:33:43.557Z,9.70
2023-02-17T15:36:49.246Z,9.60
2023-02-17T15:39:52.905Z,9.73
2023-02-17T15:43:01.243Z,10.47
2023-02-17T15:46:13.198Z,95.37
2023-02-17T15:49:16.984Z,10.67
2023-02-17T15:52:22.163Z,12.67
2023-02-17T15:55:26.250Z,12.07
2023-02-17T15:58:30.985Z,8.77
2023-02-17T16:01:36.227Z,14.53
2023-02-17T16:04:40.025Z,8.43
2023-02-17T16:07:45.336Z,7.03
2023-02-17T16:10:52.205Z,8.07
2023-02-17T16:13:56.388Z,13.27
2023-02-17T16:17:00.318Z,11.40
2023-02-17T16:20:04.236Z,7.80
2023-02-17T16:23:09.606Z,7.63
2023-02-17T16:26:27.177Z,10.30
2023-02-17T16:29:31.754Z,4.73
2023-02-17T16:32:35.713Z,7.37
2023-02-17T16:35:39.919Z,8.70
2023-02-17T16:38:45.740Z,8.80
2023-02-17T16:41:50.548Z,5.57
2023-02-17T16:44:54.343Z,8.53
2023-02-17T16:47:59.654Z,8.90
2023-02-17T16:51:03.609Z,7.10
2023-02-17T16:54:08.880Z,11.33
2023-02-17T16:57:18.329Z,11.07
2023-02-17T17:00:24.519Z,9.03
2023-02-17T17:03:28.552Z,8.87
2023-02-17T17:06:32.466Z,9.80
2023-02-17T17:09:37.809Z,8.73
2023-02-17T17:12:41.686Z,8.43
2023-02-17T17:15:47.206Z,8.27
2023-02-17T17:18:50.962Z,13.00
2023-02-17T17:21:54.803Z,15.10
2023-02-17T17:25:00.024Z,18.80
2023-02-17T17:28:03.968Z,8.90
2023-02-17T17:31:08.303Z,10.03
2023-02-17T17:34:12.366Z,14.43
2023-02-17T17:37:16.165Z,16.47
2023-02-17T17:40:24.333Z,9.87
2023-02-17T17:43:28.211Z,13.77
2023-02-17T17:46:35.925Z,15.47
2023-02-17T17:49:39.604Z,12.53
2023-02-17T17:52:43.427Z,14.47
2023-02-17T17:55:49.195Z,11.03
2023-02-17T17:58:54.029Z,12.50
2023-02-17T18:01:57.807Z,12.83
2023-02-17T18:05:01.574Z,13.50
2023-02-17T18:08:06.411Z,14.73
2023-02-17T18:11:12.089Z,11.93
2023-02-17T18:14:16.880Z,12.87
2023-02-17T18:17:21.289Z,13.90
2023-02-17T18:20:24.999Z,21.00
2023-02-17T18:23:28.891Z,13.37
2023-02-17T18:26:35.280Z,13.20
2023-02-17T18:29:39.110Z,12.03
2023-02-17T18:32:44.287Z,13.93
2023-02-17T18:35:48.204Z,15.90
2023-02-17T18:38:52.466Z,14.83
2023-02-17T18:41:58.072Z,12.17
2023-02-17T18:45:02.135Z,11.50
2023-02-17T18:48:06.094Z,15.10
2023-02-17T18:51:10.893Z,13.87
2023-02-17T18:54:15.000Z,12.33
2023-02-17T18:57:20.321Z,10.97
2023-02-17T19:00:25.244Z,15.53
2023-02-17T19:03:29.839Z,13.37
2023-02-17T19:06:35.397Z,12.23
2023-02-17T19:09:43.238Z,16.20
2023-02-17T19:12:48.488Z,16.50
2023-02-17T19:15:52.309Z,17.27
2023-02-17T19:18:57.077Z,18.20
2023-02-17T19:22:01.508Z,14.60
2023-02-17T19:25:05.897Z,17.27
2023-02-17T19:28:11.061Z,18.07
2023-02-17T19:31:17.029Z,20.63
2023-02-17T19:34:20.987Z,17.13
2023-02-17T19:37:24.837Z,17.00
2023-02-17T19:40:28.642Z,17.70
2023-02-17T19:43:34.054Z,12.83
2023-02-17T19:46:38.438Z,15.17
2023-02-17T19:49:42.472Z,11.43
2023-02-17T19:52:46.133Z,13.17
2023-02-17T19:55:49.933Z,15.37
2023-02-17T19:58:56.015Z,18.77
2023-02-17T20:02:00.010Z,16.03
2023-02-17T20:05:04.664Z,18.07
2023-02-17T20:08:08.444Z,13.90
2023-02-17T20:11:13.675Z,14.53
2023-02-17T20:14:18.852Z,16.67
2023-02-17T20:17:23.177Z,16.77
2023-02-17T20:20:26.954Z,14.17
2023-02-17T20:23:31.374Z,18.97
2023-02-17T20:26:39.442Z,18.80
2023-02-17T20:29:44.756Z,13.93
2023-02-17T20:32:48.499Z,15.50
2023-02-17T20:35:52.653Z,15.77
2023-02-17T20:38:56.364Z,18.03
2023-02-17T20:42:00.470Z,17.47
2023-02-17T20:45:06.112Z,18.37
2023-02-17T20:48:10.276Z,15.67
2023-02-17T20:51:14.046Z,14.40
2023-02-17T20:54:17.868Z,15.40
2023-02-17T20:57:21.889Z,14.70
2023-02-17T21:00:28.654Z,15.57
2023-02-17T21:03:32.990Z,19.57
2023-02-17T21:06:39.876Z,52.40
2023-02-17T21:09:43.694Z,31.17
2023-02-17T21:12:47.793Z,19.33
2023-02-17T21:15:53.138Z,13.70
2023-02-17T21:18:56.890Z,15.33
2023-02-17T21:22:00.740Z,12.83
2023-02-17T21:25:05.397Z,12.50
2023-02-17T21:28:09.257Z,11.93
2023-02-17T21:31:15.204Z,12.37
2023-02-17T21:34:19.035Z,13.57
2023-02-17T21:37:22.915Z,10.50
2023-02-17T21:40:26.722Z,9.97
2023-02-17T21:43:47.804Z,12.60
2023-02-17T21:46:54.074Z,10.17
2023-02-17T21:49:58.148Z,10.50
2023-02-17T21:53:02.054Z,13.47
2023-02-17T21:56:06.928Z,10.93
2023-02-17T21:59:11.225Z,10.93
2023-02-17T22:02:16.589Z,10.33
2023-02-17T22:05:20.499Z,8.53
2023-02-17T22:08:24.392Z,10.57
2023-02-17T22:11:30.579Z,10.43
2023-02-17T22:14:34.392Z,12.37
2023-02-17T22:17:39.741Z,8.80
2023-02-17T22:20:45.267Z,7.43
2023-02-17T22:23:49.510Z,11.23
2023-02-17T22:26:53.381Z,10.57
2023-02-17T22:29:57.382Z,9.07
2023-02-17T22:33:02.954Z,9.73
2023-02-17T22:36:09.653Z,11.53
2023-02-17T22:39:13.682Z,9.73
2023-02-17T22:42:17.437Z,8.23
2023-02-17T22:45:21.302Z,11.27
2023-02-17T22:48:26.647Z,9.07
2023-02-17T22:51:32.362Z,9.07
2023-02-17T22:54:36.435Z,7.97
2023-02-17T22:57:40.221Z,9.43
2023-02-17T23:00:43.955Z,13.10
2023-02-17T23:03:52.935Z,13.17
2023-02-17T23:06:57.729Z,9.77
2023-02-17T23:10:01.406Z,8.77
2023-02-17T23:13:05.141Z,12.53
2023-02-17T23:16:13.561Z,11.23
2023-02-17T23:19:21.763Z,11.40
2023-02-17T23:22:26.034Z,15.03
2023-02-17T23:25:29.941Z,14.03
2023-02-17T23:28:33.790Z,10.63
2023-02-17T23:31:39.199Z,17.77
2023-02-17T23:34:44.463Z,13.67
2023-02-17T23:37:50.700Z,13.43
2023-02-17T23:40:54.554Z,9.00
2023-02-17T23:43:58.395Z,17.57
2023-02-17T23:47:02.185Z,8.97
2023-02-17T23:50:08.780Z,11.70
2023-02-17T23:53:12.531Z,17.77
2023-02-17T23:56:18.247Z,23.53
2023-02-17T23:59:22.022Z,10.93
